Main page
METAR-TAF:

Airports :

Çorlu, Turkey

Tekirdağ Çorlu Airport

latitude: 41-08N, longitude: 027-55E, elevation: 173 m

Current weather observation

The report was made 25 minutes ago, at 18:20 UTC
Wind 10 kt from the South
Temperature 14°C
Humidity 82%
Pressure 1011 hPa
Visibility 10 km or more
Scattered clouds at a height of 3500 ft

METAR: LTBU 141820Z 19010KT 9999 SCT035 14/11 Q1011

Time: 20:45 (18:45 UTC)

Forecast

The report was made 2 hours and 5 minutes ago, at 16:40 UTC
Forecast valid from 14 at 18 UTC to 15 at 18 UTC
Wind 9 kt from the South/Southwest
Visibility 10 km or more
no clouds below 1500 m and no cumulonimbus
Becoming
from 14 at 22 UTC to 15 at 02 UTC
Scattered clouds at a height of 3500 ft
Broken clouds at a height of 10000 ft
Becoming
from 15 at 05 UTC to 15 at 09 UTC
Visibility 10 km or more
no clouds below 1500 m and no cumulonimbus

TAF: LTBU 141640Z 1418/1518 21009KT CAVOK BECMG 1422/1502 SCT035 BKN100 BECMG 1505/1509 CAVOK

METAR-TAF

Weather observations and forecasts of more than 4000 airports (METAR and TAF reports).

The available stations are represented by yellow and red dots on the map.

Hover mouse over dot to see the name of the station.

Then click to see weather observations and forecasts.

To change the map : click on the green buttons with a black cross to zoom in, on the green button with a dash to zoom out, or on the green arrows for adjacent maps.


METAR-TAF: